sensor_id;sensor_type;location;lat;lon;timestamp;pressure;altitude;pressure_sealevel;temperature;humidity
77431;BME280;66498;48.564;19.272;2024-01-16T00:01:27;96050.97;;;-0.87;87.90
77431;BME280;66498;48.564;19.272;2024-01-16T00:03:53;96052.31;;;-0.91;88.16
77431;BME280;66498;48.564;19.272;2024-01-16T00:06:18;96045.38;;;-0.91;88.80
77431;BME280;66498;48.564;19.272;2024-01-16T00:08:44;96050.13;;;-0.94;89.42
77431;BME280;66498;48.564;19.272;2024-01-16T00:11:09;96047.97;;;-1.12;91.50
77431;BME280;66498;48.564;19.272;2024-01-16T00:13:34;96052.94;;;-1.11;92.07
77431;BME280;66498;48.564;19.272;2024-01-16T00:16:01;96047.16;;;-1.13;92.25
77431;BME280;66498;48.564;19.272;2024-01-16T00:18:26;96048.66;;;-1.25;93.04
77431;BME280;66498;48.564;19.272;2024-01-16T00:20:52;96058.25;;;-1.34;94.06
77431;BME280;66498;48.564;19.272;2024-01-16T00:23:17;96055.69;;;-1.34;94.25
77431;BME280;66498;48.564;19.272;2024-01-16T00:25:42;96061.19;;;-1.37;94.80
77431;BME280;66498;48.564;19.272;2024-01-16T00:28:08;96070.63;;;-1.44;95.57
77431;BME280;66498;48.564;19.272;2024-01-16T00:30:33;96076.31;;;-1.49;97.01
77431;BME280;66498;48.564;19.272;2024-01-16T00:32:58;96076.56;;;-1.44;97.53
77431;BME280;66498;48.564;19.272;2024-01-16T00:35:24;96091.84;;;-1.42;97.72
77431;BME280;66498;48.564;19.272;2024-01-16T00:37:49;96099.91;;;-1.45;98.63
77431;BME280;66498;48.564;19.272;2024-01-16T00:40:14;96105.50;;;-1.41;99.32
77431;BME280;66498;48.564;19.272;2024-01-16T00:42:40;96105.38;;;-1.33;98.87
77431;BME280;66498;48.564;19.272;2024-01-16T00:45:05;96108.75;;;-1.33;99.28
77431;BME280;66498;48.564;19.272;2024-01-16T00:47:30;96116.84;;;-1.36;99.54
77431;BME280;66498;48.564;19.272;2024-01-16T00:49:56;96131.56;;;-1.30;99.54
77431;BME280;66498;48.564;19.272;2024-01-16T00:52:21;96127.22;;;-1.29;100.00
77431;BME280;66498;48.564;19.272;2024-01-16T00:54:46;96141.78;;;-1.22;99.11
77431;BME280;66498;48.564;19.272;2024-01-16T00:57:13;96145.94;;;-1.21;99.46
77431;BME280;66498;48.564;19.272;2024-01-16T00:59:41;96141.34;;;-1.25;99.73
77431;BME280;66498;48.564;19.272;2024-01-16T01:02:06;96142.56;;;-1.21;100.00
77431;BME280;66498;48.564;19.272;2024-01-16T01:04:34;96147.44;;;-1.26;100.00
77431;BME280;66498;48.564;19.272;2024-01-16T01:07:00;96154.44;;;-1.20;100.00
77431;BME280;66498;48.564;19.272;2024-01-16T01:09:25;96145.50;;;-1.24;100.00
77431;BME280;66498;48.564;19.272;2024-01-16T01:11:50;96149.06;;;-1.25;100.00
77431;BME280;66498;48.564;19.272;2024-01-16T01:14:16;96149.13;;;-1.18;100.00
77431;BME280;66498;48.564;19.272;2024-01-16T01:16:41;96167.84;;;-1.10;100.00
77431;BME280;66498;48.564;19.272;2024-01-16T01:19:06;96168.13;;;-1.20;100.00
77431;BME280;66498;48.564;19.272;2024-01-16T01:21:32;96159.59;;;-1.20;100.00
77431;BME280;66498;48.564;19.272;2024-01-16T01:23:57;96159.25;;;-1.17;100.00
77431;BME280;66498;48.564;19.272;2024-01-16T01:26:22;96153.94;;;-1.15;100.00
77431;BME280;66498;48.564;19.272;2024-01-16T01:28:47;96156.88;;;-1.18;100.00
77431;BME280;66498;48.564;19.272;2024-01-16T01:31:13;96160.47;;;-1.13;100.00
77431;BME280;66498;48.564;19.272;2024-01-16T01:33:39;96156.59;;;-1.24;100.00
77431;BME280;66498;48.564;19.272;2024-01-16T01:36:04;96163.88;;;-1.27;100.00
77431;BME280;66498;48.564;19.272;2024-01-16T01:38:29;96159.88;;;-1.30;100.00
77431;BME280;66498;48.564;19.272;2024-01-16T01:40:54;96153.94;;;-1.30;100.00
77431;BME280;66498;48.564;19.272;2024-01-16T01:43:21;96158.91;;;-1.29;100.00
77431;BME280;66498;48.564;19.272;2024-01-16T01:48:30;96166.81;;;-1.30;100.00
77431;BME280;66498;48.564;19.272;2024-01-16T01:50:57;96160.78;;;-1.37;100.00
77431;BME280;66498;48.564;19.272;2024-01-16T01:53:22;96164.50;;;-1.40;100.00
77431;BME280;66498;48.564;19.272;2024-01-16T01:55:48;96163.03;;;-1.49;100.00
77431;BME280;66498;48.564;19.272;2024-01-16T01:58:14;96170.13;;;-1.51;100.00
77431;BME280;66498;48.564;19.272;2024-01-16T02:00:39;96168.09;;;-1.56;100.00
77431;BME280;66498;48.564;19.272;2024-01-16T02:03:04;96178.56;;;-1.42;100.00
77431;BME280;66498;48.564;19.272;2024-01-16T02:05:30;96173.84;;;-1.54;100.00
77431;BME280;66498;48.564;19.272;2024-01-16T02:07:56;96182.63;;;-1.48;100.00
77431;BME280;66498;48.564;19.272;2024-01-16T02:10:22;96186.47;;;-1.59;100.00
77431;BME280;66498;48.564;19.272;2024-01-16T02:12:47;96194.00;;;-1.42;100.00
77431;BME280;66498;48.564;19.272;2024-01-16T02:15:13;96202.44;;;-1.49;100.00
77431;BME280;66498;48.564;19.272;2024-01-16T02:17:38;96205.69;;;-1.40;100.00
77431;BME280;66498;48.564;19.272;2024-01-16T02:20:03;96205.63;;;-1.32;100.00
77431;BME280;66498;48.564;19.272;2024-01-16T02:22:31;96214.31;;;-1.33;100.00
77431;BME280;66498;48.564;19.272;2024-01-16T02:24:58;96198.16;;;-1.56;100.00
77431;BME280;66498;48.564;19.272;2024-01-16T02:27:23;96210.16;;;-1.49;100.00
77431;BME280;66498;48.564;19.272;2024-01-16T02:29:48;96212.34;;;-1.31;100.00
77431;BME280;66498;48.564;19.272;2024-01-16T02:32:14;96228.78;;;-1.32;100.00
77431;BME280;66498;48.564;19.272;2024-01-16T02:34:40;96229.41;;;-1.30;100.00
77431;BME280;66498;48.564;19.272;2024-01-16T02:37:05;96222.75;;;-1.24;100.00
77431;BME280;66498;48.564;19.272;2024-01-16T02:39:31;96222.56;;;-1.37;100.00
77431;BME280;66498;48.564;19.272;2024-01-16T02:41:56;96224.59;;;-1.33;100.00
77431;BME280;66498;48.564;19.272;2024-01-16T02:44:21;96225.25;;;-1.46;100.00
77431;BME280;66498;48.564;19.272;2024-01-16T02:46:47;96223.53;;;-1.68;100.00
77431;BME280;66498;48.564;19.272;2024-01-16T02:49:12;96232.59;;;-1.57;100.00
77431;BME280;66498;48.564;19.272;2024-01-16T02:51:37;96233.22;;;-1.55;100.00
77431;BME280;66498;48.564;19.272;2024-01-16T02:54:04;96222.66;;;-1.46;100.00
77431;BME280;66498;48.564;19.272;2024-01-16T02:56:29;96223.03;;;-1.49;100.00
77431;BME280;66498;48.564;19.272;2024-01-16T02:58:55;96226.66;;;-1.58;100.00
77431;BME280;66498;48.564;19.272;2024-01-16T03:01:20;96230.56;;;-1.47;100.00
77431;BME280;66498;48.564;19.272;2024-01-16T03:03:45;96234.56;;;-1.45;100.00
77431;BME280;66498;48.564;19.272;2024-01-16T03:06:20;96241.03;;;-1.49;100.00
77431;BME280;66498;48.564;19.272;2024-01-16T03:08:45;96244.31;;;-1.40;100.00
77431;BME280;66498;48.564;19.272;2024-01-16T03:11:11;96245.28;;;-1.41;100.00
77431;BME280;66498;48.564;19.272;2024-01-16T03:13:36;96249.75;;;-1.35;100.00
77431;BME280;66498;48.564;19.272;2024-01-16T03:16:06;96248.06;;;-1.42;100.00
77431;BME280;66498;48.564;19.272;2024-01-16T03:18:31;96259.06;;;-1.34;100.00
77431;BME280;66498;48.564;19.272;2024-01-16T03:20:58;96259.84;;;-1.63;100.00
77431;BME280;66498;48.564;19.272;2024-01-16T03:23:23;96260.38;;;-1.53;100.00
77431;BME280;66498;48.564;19.272;2024-01-16T03:25:48;96260.19;;;-1.51;100.00
77431;BME280;66498;48.564;19.272;2024-01-16T03:28:13;96256.81;;;-1.67;100.00
77431;BME280;66498;48.564;19.272;2024-01-16T03:30:39;96264.00;;;-1.62;100.00
77431;BME280;66498;48.564;19.272;2024-01-16T03:33:04;96261.50;;;-1.70;100.00
77431;BME280;66498;48.564;19.272;2024-01-16T03:35:30;96258.81;;;-1.77;100.00
77431;BME280;66498;48.564;19.272;2024-01-16T03:37:55;96255.06;;;-1.66;100.00
77431;BME280;66498;48.564;19.272;2024-01-16T03:40:20;96262.94;;;-1.68;100.00
77431;BME280;66498;48.564;19.272;2024-01-16T03:42:46;96260.88;;;-1.72;100.00
77431;BME280;66498;48.564;19.272;2024-01-16T03:45:11;96264.16;;;-1.78;100.00
77431;BME280;66498;48.564;19.272;2024-01-16T03:47:36;96279.94;;;-1.81;100.00
77431;BME280;66498;48.564;19.272;2024-01-16T03:50:01;96271.25;;;-1.80;100.00
77431;BME280;66498;48.564;19.272;2024-01-16T03:52:27;96276.13;;;-1.71;100.00
77431;BME280;66498;48.564;19.272;2024-01-16T03:54:52;96267.97;;;-1.74;100.00
77431;BME280;66498;48.564;19.272;2024-01-16T03:57:17;96275.25;;;-1.78;100.00
77431;BME280;66498;48.564;19.272;2024-01-16T03:59:43;96271.09;;;-1.79;100.00
77431;BME280;66498;48.564;19.272;2024-01-16T04:02:08;96286.06;;;-1.82;100.00
77431;BME280;66498;48.564;19.272;2024-01-16T04:04:34;96279.88;;;-1.73;100.00
77431;BME280;66498;48.564;19.272;2024-01-16T04:06:59;96278.44;;;-1.76;100.00
77431;BME280;66498;48.564;19.272;2024-01-16T04:09:25;96284.66;;;-1.70;100.00
77431;BME280;66498;48.564;19.272;2024-01-16T04:11:50;96279.97;;;-1.67;100.00
77431;BME280;66498;48.564;19.272;2024-01-16T04:14:16;96280.16;;;-1.53;100.00
77431;BME280;66498;48.564;19.272;2024-01-16T04:16:41;96279.72;;;-1.57;100.00
77431;BME280;66498;48.564;19.272;2024-01-16T04:19:06;96284.00;;;-1.49;100.00
77431;BME280;66498;48.564;19.272;2024-01-16T04:21:32;96289.94;;;-1.49;100.00
77431;BME280;66498;48.564;19.272;2024-01-16T04:23:57;96290.56;;;-1.47;100.00
77431;BME280;66498;48.564;19.272;2024-01-16T04:26:23;96294.56;;;-1.44;100.00
77431;BME280;66498;48.564;19.272;2024-01-16T04:28:49;96299.25;;;-1.48;100.00
77431;BME280;66498;48.564;19.272;2024-01-16T04:31:15;96300.84;;;-1.47;100.00
77431;BME280;66498;48.564;19.272;2024-01-16T04:33:42;96310.00;;;-1.44;100.00
77431;BME280;66498;48.564;19.272;2024-01-16T04:36:08;96303.59;;;-1.48;100.00
77431;BME280;66498;48.564;19.272;2024-01-16T04:38:33;96310.69;;;-1.50;100.00
77431;BME280;66498;48.564;19.272;2024-01-16T04:41:02;96310.88;;;-1.52;100.00
77431;BME280;66498;48.564;19.272;2024-01-16T04:43:27;96311.31;;;-1.48;100.00
77431;BME280;66498;48.564;19.272;2024-01-16T04:45:53;96314.84;;;-1.64;100.00
77431;BME280;66498;48.564;19.272;2024-01-16T04:48:18;96320.00;;;-1.64;100.00
77431;BME280;66498;48.564;19.272;2024-01-16T04:50:44;96320.28;;;-1.59;100.00
77431;BME280;66498;48.564;19.272;2024-01-16T04:53:10;96329.31;;;-1.63;100.00
77431;BME280;66498;48.564;19.272;2024-01-16T04:55:35;96330.28;;;-1.64;100.00
77431;BME280;66498;48.564;19.272;2024-01-16T04:58:01;96327.94;;;-1.74;100.00
77431;BME280;66498;48.564;19.272;2024-01-16T05:00:26;96339.50;;;-1.70;100.00
77431;BME280;66498;48.564;19.272;2024-01-16T05:02:52;96338.06;;;-1.72;100.00
77431;BME280;66498;48.564;19.272;2024-01-16T05:05:17;96341.78;;;-1.75;100.00
77431;BME280;66498;48.564;19.272;2024-01-16T05:07:42;96342.78;;;-1.76;100.00
77431;BME280;66498;48.564;19.272;2024-01-16T05:10:11;96345.69;;;-1.79;100.00
77431;BME280;66498;48.564;19.272;2024-01-16T05:12:40;96348.53;;;-1.74;100.00
77431;BME280;66498;48.564;19.272;2024-01-16T05:15:05;96352.75;;;-1.81;100.00
77431;BME280;66498;48.564;19.272;2024-01-16T05:17:31;96346.22;;;-1.83;100.00
77431;BME280;66498;48.564;19.272;2024-01-16T05:19:57;96353.75;;;-1.82;100.00
77431;BME280;66498;48.564;19.272;2024-01-16T05:22:22;96365.13;;;-1.76;100.00
77431;BME280;66498;48.564;19.272;2024-01-16T05:24:47;96357.91;;;-1.81;100.00
77431;BME280;66498;48.564;19.272;2024-01-16T05:27:13;96360.03;;;-1.84;100.00
77431;BME280;66498;48.564;19.272;2024-01-16T05:29:42;96353.28;;;-1.85;100.00
77431;BME280;66498;48.564;19.272;2024-01-16T05:32:07;96361.13;;;-1.79;100.00
77431;BME280;66498;48.564;19.272;2024-01-16T05:34:32;96365.81;;;-1.82;100.00
77431;BME280;66498;48.564;19.272;2024-01-16T05:36:58;96359.88;;;-1.83;100.00
77431;BME280;66498;48.564;19.272;2024-01-16T05:39:23;96365.34;;;-1.86;100.00
77431;BME280;66498;48.564;19.272;2024-01-16T05:41:49;96369.25;;;-1.90;100.00
77431;BME280;66498;48.564;19.272;2024-01-16T05:44:15;96371.63;;;-1.88;100.00
77431;BME280;66498;48.564;19.272;2024-01-16T05:46:40;96371.63;;;-1.88;100.00
77431;BME280;66498;48.564;19.272;2024-01-16T05:49:06;96381.28;;;-1.91;100.00
77431;BME280;66498;48.564;19.272;2024-01-16T05:51:31;96388.53;;;-1.94;100.00
77431;BME280;66498;48.564;19.272;2024-01-16T05:53:57;96394.22;;;-1.99;100.00
77431;BME280;66498;48.564;19.272;2024-01-16T05:56:22;96395.34;;;-2.01;100.00
77431;BME280;66498;48.564;19.272;2024-01-16T05:58:47;96396.19;;;-2.09;100.00
77431;BME280;66498;48.564;19.272;2024-01-16T06:01:13;96391.84;;;-2.08;100.00
77431;BME280;66498;48.564;19.272;2024-01-16T06:03:41;96406.66;;;-2.10;100.00
77431;BME280;66498;48.564;19.272;2024-01-16T06:06:07;96409.69;;;-2.07;100.00
77431;BME280;66498;48.564;19.272;2024-01-16T06:08:35;96416.38;;;-1.98;100.00
77431;BME280;66498;48.564;19.272;2024-01-16T06:11:00;96417.53;;;-2.00;100.00
77431;BME280;66498;48.564;19.272;2024-01-16T06:13:26;96427.97;;;-2.02;100.00
77431;BME280;66498;48.564;19.272;2024-01-16T06:15:51;96428.16;;;-2.03;100.00
77431;BME280;66498;48.564;19.272;2024-01-16T06:18:16;96427.47;;;-1.97;100.00
77431;BME280;66498;48.564;19.272;2024-01-16T06:20:42;96426.19;;;-2.01;100.00
77431;BME280;66498;48.564;19.272;2024-01-16T06:23:07;96434.25;;;-2.04;100.00
77431;BME280;66498;48.564;19.272;2024-01-16T06:25:32;96443.41;;;-2.02;100.00
77431;BME280;66498;48.564;19.272;2024-01-16T06:27:58;96429.91;;;-2.04;100.00
77431;BME280;66498;48.564;19.272;2024-01-16T06:30:23;96446.78;;;-2.01;100.00
77431;BME280;66498;48.564;19.272;2024-01-16T06:32:48;96454.69;;;-2.03;100.00
77431;BME280;66498;48.564;19.272;2024-01-16T06:35:15;96461.88;;;-1.98;100.00
77431;BME280;66498;48.564;19.272;2024-01-16T06:37:40;96467.00;;;-1.98;100.00
77431;BME280;66498;48.564;19.272;2024-01-16T06:40:05;96463.19;;;-2.02;100.00
77431;BME280;66498;48.564;19.272;2024-01-16T06:42:31;96467.53;;;-2.03;100.00
77431;BME280;66498;48.564;19.272;2024-01-16T06:44:56;96467.34;;;-2.01;100.00
77431;BME280;66498;48.564;19.272;2024-01-16T06:47:22;96470.25;;;-2.04;100.00
77431;BME280;66498;48.564;19.272;2024-01-16T06:49:48;96477.69;;;-2.09;100.00
77431;BME280;66498;48.564;19.272;2024-01-16T06:52:14;96482.66;;;-2.08;100.00
77431;BME280;66498;48.564;19.272;2024-01-16T06:54:39;96492.00;;;-2.07;100.00
77431;BME280;66498;48.564;19.272;2024-01-16T06:57:04;96496.94;;;-2.05;100.00
77431;BME280;66498;48.564;19.272;2024-01-16T06:59:30;96492.75;;;-1.98;100.00
77431;BME280;66498;48.564;19.272;2024-01-16T07:01:55;96498.34;;;-1.95;100.00
77431;BME280;66498;48.564;19.272;2024-01-16T07:04:20;96494.25;;;-1.81;100.00
77431;BME280;66498;48.564;19.272;2024-01-16T07:06:46;96507.44;;;-1.76;100.00
77431;BME280;66498;48.564;19.272;2024-01-16T07:09:11;96496.94;;;-1.74;100.00
77431;BME280;66498;48.564;19.272;2024-01-16T07:11:37;96509.78;;;-1.66;100.00
77431;BME280;66498;48.564;19.272;2024-01-16T07:14:03;96510.53;;;-1.57;100.00
77431;BME280;66498;48.564;19.272;2024-01-16T07:16:29;96521.75;;;-1.50;100.00
77431;BME280;66498;48.564;19.272;2024-01-16T07:18:54;96525.47;;;-1.53;100.00
77431;BME280;66498;48.564;19.272;2024-01-16T07:21:20;96526.91;;;-1.50;99.00
77431;BME280;66498;48.564;19.272;2024-01-16T07:23:46;96530.44;;;-1.51;98.52
77431;BME280;66498;48.564;19.272;2024-01-16T07:26:12;96540.53;;;-1.41;96.83
77431;BME280;66498;48.564;19.272;2024-01-16T07:28:37;96536.97;;;-1.40;97.30
77431;BME280;66498;48.564;19.272;2024-01-16T07:31:02;96542.59;;;-1.37;96.46
77431;BME280;66498;48.564;19.272;2024-01-16T07:33:28;96545.81;;;-1.35;97.78
77431;BME280;66498;48.564;19.272;2024-01-16T07:35:53;96546.66;;;-1.42;96.41
77431;BME280;66498;48.564;19.272;2024-01-16T07:38:19;96549.81;;;-1.32;96.70
77431;BME280;66498;48.564;19.272;2024-01-16T07:40:44;96552.09;;;-1.37;95.97
77431;BME280;66498;48.564;19.272;2024-01-16T07:43:10;96546.59;;;-1.34;96.82
77431;BME280;66498;48.564;19.272;2024-01-16T07:45:35;96548.19;;;-1.33;97.98
77431;BME280;66498;48.564;19.272;2024-01-16T07:48:00;96567.19;;;-1.34;100.00
77431;BME280;66498;48.564;19.272;2024-01-16T07:50:26;96563.56;;;-1.48;100.00
77431;BME280;66498;48.564;19.272;2024-01-16T07:52:51;96571.56;;;-1.43;100.00
77431;BME280;66498;48.564;19.272;2024-01-16T07:55:17;96568.31;;;-1.37;100.00
77431;BME280;66498;48.564;19.272;2024-01-16T07:57:43;96576.09;;;-1.45;100.00
77431;BME280;66498;48.564;19.272;2024-01-16T08:00:09;96595.78;;;-1.29;100.00
77431;BME280;66498;48.564;19.272;2024-01-16T08:02:37;96587.72;;;-1.26;100.00
77431;BME280;66498;48.564;19.272;2024-01-16T08:05:02;96598.03;;;-1.26;100.00
77431;BME280;66498;48.564;19.272;2024-01-16T08:07:28;96587.72;;;-1.26;100.00
77431;BME280;66498;48.564;19.272;2024-01-16T08:09:53;96593.34;;;-1.23;99.91
77431;BME280;66498;48.564;19.272;2024-01-16T08:12:18;96585.59;;;-1.14;99.16
77431;BME280;66498;48.564;19.272;2024-01-16T08:14:44;96595.03;;;-1.07;98.99
77431;BME280;66498;48.564;19.272;2024-01-16T08:17:09;96598.41;;;-1.06;98.54
77431;BME280;66498;48.564;19.272;2024-01-16T08:19:35;96598.50;;;-1.23;98.58
77431;BME280;66498;48.564;19.272;2024-01-16T08:22:01;96598.41;;;-1.06;97.65
77431;BME280;66498;48.564;19.272;2024-01-16T08:24:27;96610.16;;;-1.04;97.22
77431;BME280;66498;48.564;19.272;2024-01-16T08:26:52;96606.13;;;-1.06;97.01
77431;BME280;66498;48.564;19.272;2024-01-16T08:29:18;96611.53;;;-0.93;97.41
77431;BME280;66498;48.564;19.272;2024-01-16T08:31:43;96608.59;;;-0.90;98.74
77431;BME280;66498;48.564;19.272;2024-01-16T08:34:08;96619.56;;;-0.88;95.56
77431;BME280;66498;48.564;19.272;2024-01-16T08:36:33;96618.44;;;-0.93;96.07
77431;BME280;66498;48.564;19.272;2024-01-16T08:38:59;96624.59;;;-0.94;95.80
77431;BME280;66498;48.564;19.272;2024-01-16T08:41:24;96637.34;;;-1.01;96.86
77431;BME280;66498;48.564;19.272;2024-01-16T08:43:49;96631.53;;;-1.03;95.68
77431;BME280;66498;48.564;19.272;2024-01-16T08:46:16;96643.41;;;-0.94;95.96
77431;BME280;66498;48.564;19.272;2024-01-16T08:48:41;96639.19;;;-0.87;94.86
77431;BME280;66498;48.564;19.272;2024-01-16T08:51:07;96635.81;;;-0.87;94.19
77431;BME280;66498;48.564;19.272;2024-01-16T08:53:33;96643.66;;;-0.81;94.51
77431;BME280;66498;48.564;19.272;2024-01-16T08:55:59;96645.31;;;-0.88;94.37
77431;BME280;66498;48.564;19.272;2024-01-16T08:58:25;96653.03;;;-0.88;94.76
77431;BME280;66498;48.564;19.272;2024-01-16T09:00:50;96656.53;;;-0.81;93.53
77431;BME280;66498;48.564;19.272;2024-01-16T09:03:15;96663.97;;;-0.63;94.17
77431;BME280;66498;48.564;19.272;2024-01-16T09:05:41;96665.34;;;-0.75;92.97
77431;BME280;66498;48.564;19.272;2024-01-16T09:08:08;96667.06;;;-0.90;93.45
77431;BME280;66498;48.564;19.272;2024-01-16T09:10:33;96667.13;;;-0.76;91.12
77431;BME280;66498;48.564;19.272;2024-01-16T09:12:59;96676.50;;;-0.83;92.50
77431;BME280;66498;48.564;19.272;2024-01-16T09:15:24;96667.91;;;-0.75;93.34
77431;BME280;66498;48.564;19.272;2024-01-16T09:17:49;96670.03;;;-0.79;93.27
77431;BME280;66498;48.564;19.272;2024-01-16T09:20:15;96664.19;;;-0.73;92.36
77431;BME280;66498;48.564;19.272;2024-01-16T09:22:40;96665.00;;;-0.72;93.12
77431;BME280;66498;48.564;19.272;2024-01-16T09:25:06;96670.84;;;-0.78;92.66
77431;BME280;66498;48.564;19.272;2024-01-16T09:27:31;96662.28;;;-0.70;92.49
77431;BME280;66498;48.564;19.272;2024-01-16T09:29:57;96669.78;;;-0.61;92.24
77431;BME280;66498;48.564;19.272;2024-01-16T09:32:22;96663.63;;;-0.60;91.54
77431;BME280;66498;48.564;19.272;2024-01-16T09:34:48;96660.72;;;-0.57;91.08
77431;BME280;66498;48.564;19.272;2024-01-16T09:37:13;96658.75;;;-0.55;88.68
77431;BME280;66498;48.564;19.272;2024-01-16T09:39:40;96658.75;;;-0.32;89.39
77431;BME280;66498;48.564;19.272;2024-01-16T09:42:06;96669.28;;;-0.18;88.86
77431;BME280;66498;48.564;19.272;2024-01-16T09:44:31;96671.31;;;-0.14;86.81
77431;BME280;66498;48.564;19.272;2024-01-16T09:46:57;96674.00;;;-0.45;87.95
77431;BME280;66498;48.564;19.272;2024-01-16T09:49:23;96679.44;;;-0.40;87.27
77431;BME280;66498;48.564;19.272;2024-01-16T09:51:48;96684.25;;;-0.37;87.54
77431;BME280;66498;48.564;19.272;2024-01-16T09:54:14;96679.13;;;-0.22;88.01
77431;BME280;66498;48.564;19.272;2024-01-16T09:56:41;96682.59;;;-0.30;87.24
77431;BME280;66498;48.564;19.272;2024-01-16T09:59:08;96684.25;;;-0.37;87.99
77431;BME280;66498;48.564;19.272;2024-01-16T10:01:34;96688.63;;;-0.37;88.06
77431;BME280;66498;48.564;19.272;2024-01-16T10:04:00;96687.06;;;-0.23;88.31
77431;BME280;66498;48.564;19.272;2024-01-16T10:06:27;96689.69;;;-0.32;88.54
77431;BME280;66498;48.564;19.272;2024-01-16T10:08:52;96685.50;;;-0.33;87.58
77431;BME280;66498;48.564;19.272;2024-01-16T10:11:17;96687.91;;;-0.31;88.27
77431;BME280;66498;48.564;19.272;2024-01-16T10:13:44;96691.94;;;-0.29;86.70
77431;BME280;66498;48.564;19.272;2024-01-16T10:16:09;96684.41;;;-0.38;88.51
77431;BME280;66498;48.564;19.272;2024-01-16T10:18:34;96694.13;;;-0.40;88.01
77431;BME280;66498;48.564;19.272;2024-01-16T10:21:00;96693.72;;;-0.52;88.00
77431;BME280;66498;48.564;19.272;2024-01-16T10:23:25;96706.78;;;-0.54;87.86
77431;BME280;66498;48.564;19.272;2024-01-16T10:26:24;96698.63;;;-0.42;88.26
77431;BME280;66498;48.564;19.272;2024-01-16T10:28:46;96701.63;;;-0.54;86.73
77431;BME280;66498;48.564;19.272;2024-01-16T10:31:11;96710.72;;;-0.43;86.68
77431;BME280;66498;48.564;19.272;2024-01-16T10:33:39;96706.81;;;-0.16;87.85
77431;BME280;66498;48.564;19.272;2024-01-16T10:38:34;96718.84;;;-0.31;86.43
77431;BME280;66498;48.564;19.272;2024-01-16T10:41:10;96715.53;;;-0.17;85.31
77431;BME280;66498;48.564;19.272;2024-01-16T10:43:35;96715.47;;;-0.32;87.50
77431;BME280;66498;48.564;19.272;2024-01-16T10:46:11;96711.84;;;-0.37;87.28
77431;BME280;66498;48.564;19.272;2024-01-16T10:48:37;96715.94;;;-0.28;86.87
77431;BME280;66498;48.564;19.272;2024-01-16T10:51:03;96721.53;;;-0.25;87.01
77431;BME280;66498;48.564;19.272;2024-01-16T10:53:32;96717.25;;;-0.09;88.79
77431;BME280;66498;48.564;19.272;2024-01-16T10:55:58;96717.38;;;-0.26;86.97
77431;BME280;66498;48.564;19.272;2024-01-16T10:58:24;96719.06;;;-0.18;86.80
77431;BME280;66498;48.564;19.272;2024-01-16T11:00:56;96726.44;;;-0.07;87.67
77431;BME280;66498;48.564;19.272;2024-01-16T11:03:25;96722.75;;;-0.12;87.37
77431;BME280;66498;48.564;19.272;2024-01-16T11:05:53;96720.75;;;-0.25;88.06
77431;BME280;66498;48.564;19.272;2024-01-16T11:08:20;96720.69;;;-0.17;88.37
77431;BME280;66498;48.564;19.272;2024-01-16T11:10:45;96727.56;;;-0.09;89.45
77431;BME280;66498;48.564;19.272;2024-01-16T11:13:13;96722.53;;;-0.03;89.71
77431;BME280;66498;48.564;19.272;2024-01-16T11:15:39;96721.88;;;-0.05;89.08
77431;BME280;66498;48.564;19.272;2024-01-16T11:18:06;96723.84;;;-0.07;90.18
77431;BME280;66498;48.564;19.272;2024-01-16T11:20:33;96725.00;;;-0.09;89.33
77431;BME280;66498;48.564;19.272;2024-01-16T11:22:59;96725.00;;;0.06;89.35
77431;BME280;66498;48.564;19.272;2024-01-16T11:25:33;96724.75;;;0.01;89.40
77431;BME280;66498;48.564;19.272;2024-01-16T11:28:11;96717.47;;;0.19;88.95
77431;BME280;66498;48.564;19.272;2024-01-16T11:30:37;96724.88;;;0.22;89.21
77431;BME280;66498;48.564;19.272;2024-01-16T11:33:03;96720.03;;;0.04;88.81
77431;BME280;66498;48.564;19.272;2024-01-16T11:35:35;96719.16;;;0.27;89.11
77431;BME280;66498;48.564;19.272;2024-01-16T11:38:15;96725.97;;;0.28;88.33
77431;BME280;66498;48.564;19.272;2024-01-16T11:40:41;96725.06;;;0.50;89.27
77431;BME280;66498;48.564;19.272;2024-01-16T11:45:50;96723.31;;;-0.25;88.28
77431;BME280;66498;48.564;19.272;2024-01-16T11:48:16;96730.72;;;-0.22;89.60
77431;BME280;66498;48.564;19.272;2024-01-16T11:50:42;96726.81;;;-0.18;90.66
77431;BME280;66498;48.564;19.272;2024-01-16T11:53:07;96719.19;;;-0.11;92.45
77431;BME280;66498;48.564;19.272;2024-01-16T11:55:33;96733.59;;;-0.17;91.38
77431;BME280;66498;48.564;19.272;2024-01-16T12:00:44;96718.81;;;-0.23;90.56
77431;BME280;66498;48.564;19.272;2024-01-16T12:03:10;96722.31;;;-0.16;91.80
77431;BME280;66498;48.564;19.272;2024-01-16T12:05:38;96719.41;;;-0.21;90.63
77431;BME280;66498;48.564;19.272;2024-01-16T12:08:04;96720.97;;;-0.12;91.39
77431;BME280;66498;48.564;19.272;2024-01-16T12:10:31;96714.31;;;-0.06;90.87
77431;BME280;66498;48.564;19.272;2024-01-16T12:12:57;96727.22;;;-0.06;90.98
77431;BME280;66498;48.564;19.272;2024-01-16T12:15:23;96724.91;;;-0.01;89.18
77431;BME280;66498;48.564;19.272;2024-01-16T12:17:58;96729.50;;;-0.11;89.49
77431;BME280;66498;48.564;19.272;2024-01-16T12:20:25;96732.50;;;0.01;89.07
77431;BME280;66498;48.564;19.272;2024-01-16T12:22:54;96735.66;;;-0.12;89.00
77431;BME280;66498;48.564;19.272;2024-01-16T12:25:20;96733.91;;;0.03;90.49
77431;BME280;66498;48.564;19.272;2024-01-16T12:27:53;96741.63;;;0.03;90.03
77431;BME280;66498;48.564;19.272;2024-01-16T12:30:18;96742.69;;;-0.06;89.43
77431;BME280;66498;48.564;19.272;2024-01-16T12:32:44;96745.56;;;-0.01;89.34
77431;BME280;66498;48.564;19.272;2024-01-16T12:35:09;96745.28;;;-0.06;89.91
77431;BME280;66498;48.564;19.272;2024-01-16T12:37:34;96754.94;;;0.15;89.48
77431;BME280;66498;48.564;19.272;2024-01-16T12:39:59;96751.84;;;0.19;89.73
77431;BME280;66498;48.564;19.272;2024-01-16T12:42:25;96752.22;;;0.31;88.33
77431;BME280;66498;48.564;19.272;2024-01-16T12:44:50;96759.88;;;0.25;87.50
77431;BME280;66498;48.564;19.272;2024-01-16T12:47:15;96754.00;;;0.31;88.40
77431;BME280;66498;48.564;19.272;2024-01-16T12:49:41;96757.84;;;0.35;86.89